Yurimaguas, Peru
Current Conditions -  °F | °C
As of 4:00 PM on Saturday 20 Dec 2014 (Local Time) from SPST Reporting Station
Few Clouds Few Clouds  
Wind Chill: 93°   Ceiling: Unl
Heat Index: 103°   Visibility: 6mi
Dew Point: 73°   Wind: 15mph
Humidity: 52%   Direction: 320°NW
Pressure: 29.65"   Gusts: NA
Location:  5.91°S, 76.1°W
Report Text: SPST 202100Z 32013KT 9999 FEW025 34/23 Q1004 RMK BIRD HAZARD RWY 17/35 PP000
Loading
Personal Weather Stations






























Interactive Weather Map New forecast layout! Learn more

10-Day Weather Forecast

Advertisements
Track Severe Weather on mobile